首页
METAR-TAF:

METAR-TAF

机场 :

塔瓦, 尼日尔

纬度: 14-54N, 经度: 005-15E, 海拔: 386米

当前天气观测

该预报发布于1小时和23分钟前的11:00 UTC
风速7节,风向西转西南,在南转西南西之间变化
温度 31°C
湿度 63%
气压 1016 hPa
能见度10公里或以上
少量云层高于3000英尺

METAR: DRRT 231100Z 24007KT 200V280 9999 FEW030 31/23 Q1016

时间: 13:23 (12:23 UTC)


TAF: 丢失

超过4000个机场的气象观测和天气预报(METAR&TAF报告)。

可查询的气象台以黄色和红色小点在地图上表示。

将鼠标移到小点上方,可查看气象台名称。

然后点击查看天气观测和预报。

如需切换地图:点击带黑十字的绿色按钮放大地图;点击带横线的绿色按钮缩小地图;或者点击绿色箭头查看邻近地区的地图。


METAR-TAF: